createdAt,value
2019-02-14T00:01:14.744Z,21.30
2019-02-14T00:03:43.461Z,21.33
2019-02-14T00:06:12.204Z,22.10
2019-02-14T00:08:41.185Z,21.87
2019-02-14T00:11:09.918Z,21.50
2019-02-14T00:13:38.692Z,21.70
2019-02-14T00:16:07.437Z,21.10
2019-02-14T00:18:36.158Z,22.30
2019-02-14T00:21:04.888Z,22.73
2019-02-14T00:23:33.877Z,20.87
2019-02-14T00:26:02.647Z,21.23
2019-02-14T00:28:31.382Z,20.63
2019-02-14T00:31:00.336Z,22.90
2019-02-14T00:33:29.057Z,21.07
2019-02-14T00:35:57.785Z,20.57
2019-02-14T00:38:26.585Z,21.20
2019-02-14T00:40:55.333Z,19.80
2019-02-14T00:43:24.102Z,20.53
2019-02-14T00:45:52.853Z,21.23
2019-02-14T00:48:21.584Z,20.30
2019-02-14T00:50:50.333Z,20.30
2019-02-14T00:53:19.085Z,21.63
2019-02-14T00:55:47.842Z,20.30
2019-02-14T00:58:16.565Z,20.33
2019-02-14T01:00:45.311Z,20.87
2019-02-14T01:03:14.061Z,19.57
2019-02-14T01:05:42.817Z,19.13
2019-02-14T01:08:11.566Z,18.90
2019-02-14T01:10:40.293Z,20.43
2019-02-14T01:13:09.016Z,18.97
2019-02-14T01:15:37.889Z,20.40
2019-02-14T01:18:06.614Z,19.20
2019-02-14T01:20:35.356Z,20.70
2019-02-14T01:23:04.109Z,19.53
2019-02-14T01:25:32.861Z,19.10
2019-02-14T01:28:01.605Z,20.83
2019-02-14T01:30:30.353Z,18.93
2019-02-14T01:32:59.116Z,18.83
2019-02-14T01:35:27.832Z,19.80
2019-02-14T01:37:56.553Z,18.93
2019-02-14T01:40:25.305Z,16.87
2019-02-14T01:42:54.038Z,19.27
2019-02-14T01:45:22.776Z,19.17
2019-02-14T01:47:51.509Z,18.03
2019-02-14T01:50:20.262Z,18.07
2019-02-14T01:52:49.018Z,17.53
2019-02-14T01:55:17.765Z,18.13
2019-02-14T01:57:46.495Z,18.50
2019-02-14T02:00:15.797Z,18.27
2019-02-14T02:02:44.533Z,17.83
2019-02-14T02:05:13.304Z,17.50
2019-02-14T02:07:42.028Z,17.73
2019-02-14T02:10:11.236Z,17.87
2019-02-14T02:12:39.927Z,17.63
2019-02-14T02:15:09.826Z,18.10
2019-02-14T02:17:38.378Z,15.53
2019-02-14T02:20:07.423Z,15.90
2019-02-14T02:22:36.023Z,17.47
2019-02-14T02:25:04.896Z,16.43
2019-02-14T02:27:33.463Z,15.47
2019-02-14T02:30:02.205Z,15.77
2019-02-14T02:32:30.798Z,15.93
2019-02-14T02:34:59.345Z,14.53
2019-02-14T02:37:27.908Z,15.83
2019-02-14T02:39:56.471Z,15.53
2019-02-14T02:42:25.039Z,15.07
2019-02-14T02:44:55.428Z,15.93
2019-02-14T02:47:24.003Z,14.67
2019-02-14T02:49:52.599Z,14.57
2019-02-14T02:52:21.152Z,15.07
2019-02-14T02:54:49.794Z,15.17
2019-02-14T02:57:18.336Z,14.60
2019-02-14T02:59:46.883Z,15.33
2019-02-14T03:02:15.479Z,14.77
2019-02-14T03:04:44.062Z,13.57
2019-02-14T03:07:12.635Z,14.20
2019-02-14T03:09:41.208Z,14.70
2019-02-14T03:12:09.762Z,14.17
2019-02-14T03:14:38.343Z,14.00
2019-02-14T03:17:06.963Z,14.10
2019-02-14T03:19:35.530Z,13.80
2019-02-14T03:22:04.075Z,14.17
2019-02-14T03:24:32.643Z,13.33
2019-02-14T03:27:01.189Z,13.33
2019-02-14T03:29:29.779Z,14.40
2019-02-14T03:31:58.330Z,14.03
2019-02-14T03:34:26.892Z,14.53
2019-02-14T03:36:55.470Z,12.97
2019-02-14T03:39:24.036Z,12.93
2019-02-14T03:41:52.592Z,13.63
2019-02-14T03:44:21.155Z,12.53
2019-02-14T03:46:49.757Z,13.23
2019-02-14T03:49:18.314Z,12.90
2019-02-14T03:51:46.887Z,12.23
2019-02-14T03:54:15.482Z,12.10
2019-02-14T03:56:44.050Z,12.33
2019-02-14T03:59:12.597Z,12.33
2019-02-14T04:01:41.176Z,12.10
2019-02-14T04:04:09.730Z,11.43
2019-02-14T04:06:38.287Z,12.37
2019-02-14T04:09:07.692Z,12.10
2019-02-14T04:11:36.243Z,12.10
2019-02-14T04:14:04.790Z,11.93
2019-02-14T04:16:36.401Z,13.13
2019-02-14T04:19:04.986Z,12.27
2019-02-14T04:21:33.650Z,11.97
2019-02-14T04:24:02.201Z,11.73
2019-02-14T04:26:30.750Z,12.63
2019-02-14T04:28:59.314Z,11.77
2019-02-14T04:31:29.389Z,11.63
2019-02-14T04:33:57.969Z,11.90
2019-02-14T04:36:26.522Z,12.50
2019-02-14T04:38:55.129Z,12.10
2019-02-14T04:41:23.721Z,12.57
2019-02-14T04:43:52.286Z,12.83
2019-02-14T04:46:20.871Z,11.90
2019-02-14T04:48:49.415Z,12.07
2019-02-14T04:51:18.051Z,11.37
2019-02-14T04:53:46.610Z,11.47
2019-02-14T04:56:15.199Z,11.90
2019-02-14T04:58:43.795Z,11.37
2019-02-14T05:01:12.362Z,11.57
2019-02-14T05:03:40.927Z,11.87
2019-02-14T05:06:09.506Z,11.63
2019-02-14T05:08:38.143Z,11.80
2019-02-14T05:11:06.694Z,12.47
2019-02-14T05:13:35.248Z,11.80
2019-02-14T05:16:03.859Z,11.30
2019-02-14T05:18:32.463Z,12.37
2019-02-14T05:21:01.049Z,10.77
2019-02-14T05:23:29.586Z,11.83
2019-02-14T05:25:58.187Z,11.07
2019-02-14T05:28:26.751Z,11.83
2019-02-14T05:30:55.598Z,11.90
2019-02-14T05:33:24.247Z,10.93
2019-02-14T05:35:53.047Z,12.20
2019-02-14T05:38:21.619Z,11.30
2019-02-14T05:40:50.166Z,11.63
2019-02-14T05:43:18.998Z,11.83
2019-02-14T05:45:47.578Z,10.93
2019-02-14T05:48:16.207Z,11.73
2019-02-14T05:50:44.794Z,11.17
2019-02-14T05:53:13.357Z,11.67
2019-02-14T05:55:41.911Z,12.53
2019-02-14T05:58:10.482Z,11.67
2019-02-14T06:00:39.087Z,11.50
2019-02-14T06:03:07.651Z,12.17
2019-02-14T06:05:36.250Z,12.10
2019-02-14T06:08:04.803Z,11.73
2019-02-14T06:10:33.389Z,11.10
2019-02-14T06:13:01.931Z,11.80
2019-02-14T06:15:30.891Z,11.07
2019-02-14T06:17:59.438Z,11.30
2019-02-14T06:20:28.070Z,11.67
2019-02-14T06:22:56.625Z,12.17
2019-02-14T06:25:25.212Z,11.43
2019-02-14T06:27:53.810Z,11.60
2019-02-14T06:30:22.435Z,11.37
2019-02-14T06:32:51.001Z,11.40
2019-02-14T06:35:19.582Z,11.97
2019-02-14T06:37:48.438Z,12.67
2019-02-14T06:40:17.005Z,12.37
2019-02-14T06:42:45.591Z,11.47
2019-02-14T06:45:14.193Z,12.77
2019-02-14T06:47:42.766Z,11.30
2019-02-14T06:50:11.343Z,12.20
2019-02-14T06:52:40.483Z,11.77
2019-02-14T06:55:09.126Z,12.97
2019-02-14T06:57:37.726Z,12.30
2019-02-14T07:00:07.060Z,11.87
2019-02-14T07:02:35.638Z,12.13
2019-02-14T07:05:04.235Z,12.20
2019-02-14T07:07:32.810Z,12.00
2019-02-14T07:10:01.390Z,11.77
2019-02-14T07:12:30.069Z,11.83
2019-02-14T07:14:58.622Z,12.87
2019-02-14T07:17:27.174Z,11.77
2019-02-14T07:19:56.154Z,12.77
2019-02-14T07:22:24.775Z,11.20
2019-02-14T07:24:53.356Z,12.60
2019-02-14T07:27:21.928Z,12.90
2019-02-14T07:29:50.482Z,12.33
2019-02-14T07:32:19.073Z,12.53
2019-02-14T07:34:47.763Z,12.80
2019-02-14T07:37:16.399Z,13.10
2019-02-14T07:39:45.047Z,12.50
2019-02-14T07:42:13.682Z,11.47
2019-02-14T07:44:42.279Z,12.33
2019-02-14T07:47:10.819Z,13.30
2019-02-14T07:49:39.373Z,12.60
2019-02-14T07:52:08.188Z,12.63
2019-02-14T07:54:36.736Z,11.80
2019-02-14T07:57:05.309Z,12.03
2019-02-14T07:59:33.931Z,12.33
2019-02-14T08:02:02.495Z,10.57
2019-02-14T08:04:31.133Z,12.47
2019-02-14T08:07:00.052Z,13.10
2019-02-14T08:09:28.725Z,11.17
2019-02-14T08:11:57.271Z,10.80
2019-02-14T08:14:26.239Z,11.77
2019-02-14T08:16:54.778Z,11.90
2019-02-14T08:19:23.426Z,12.47
2019-02-14T08:21:51.991Z,12.13
2019-02-14T08:24:20.597Z,12.10
2019-02-14T08:26:49.287Z,11.70
2019-02-14T08:29:17.881Z,12.30
2019-02-14T08:31:46.434Z,11.97
2019-02-14T08:34:15.037Z,12.17
2019-02-14T08:36:43.622Z,12.37
2019-02-14T08:39:12.188Z,13.77
2019-02-14T08:41:40.810Z,12.63
2019-02-14T08:44:09.415Z,13.23
2019-02-14T08:46:37.978Z,12.33
2019-02-14T08:49:06.516Z,12.20
2019-02-14T08:51:35.146Z,13.03
2019-02-14T08:54:03.685Z,12.93
2019-02-14T08:56:32.274Z,13.10
2019-02-14T08:59:00.823Z,13.57
2019-02-14T09:01:29.693Z,12.13
2019-02-14T09:03:58.345Z,12.50
2019-02-14T09:06:26.979Z,13.03
2019-02-14T09:08:55.523Z,13.97
2019-02-14T09:11:24.091Z,12.50
2019-02-14T09:13:52.731Z,12.57
2019-02-14T09:16:21.310Z,13.33
2019-02-14T09:18:50.169Z,12.90
2019-02-14T09:21:18.852Z,12.50
2019-02-14T09:23:47.491Z,13.73
2019-02-14T09:26:16.136Z,13.87
2019-02-14T09:28:44.690Z,13.10
2019-02-14T09:31:13.339Z,13.10
2019-02-14T09:33:41.967Z,10.73
2019-02-14T09:36:10.600Z,12.23
2019-02-14T09:38:39.201Z,11.07
2019-02-14T09:41:07.799Z,11.97
2019-02-14T09:43:36.370Z,10.33
2019-02-14T09:46:04.974Z,12.10
2019-02-14T09:48:33.526Z,13.33
2019-02-14T09:51:02.233Z,11.83
2019-02-14T09:53:30.811Z,11.10
2019-02-14T09:55:59.395Z,11.97
2019-02-14T09:58:28.105Z,11.87
2019-02-14T10:00:56.770Z,12.63
2019-02-14T10:03:25.419Z,12.60
2019-02-14T10:05:54.023Z,11.33
2019-02-14T10:08:22.591Z,12.33
2019-02-14T10:10:51.263Z,13.33
2019-02-14T10:13:19.930Z,13.63
2019-02-14T10:15:48.531Z,12.00
2019-02-14T10:18:17.087Z,12.07
2019-02-14T10:20:45.718Z,13.40
2019-02-14T10:23:14.286Z,14.13
2019-02-14T10:25:42.870Z,13.47
2019-02-14T10:28:11.409Z,13.40
2019-02-14T10:30:40.294Z,13.63
2019-02-14T10:33:09.017Z,14.40
2019-02-14T10:35:37.651Z,13.00
2019-02-14T10:38:06.203Z,13.60
2019-02-14T10:40:34.774Z,11.13
2019-02-14T10:43:03.339Z,11.03
2019-02-14T10:45:31.910Z,13.07
2019-02-14T10:48:00.495Z,11.87
2019-02-14T10:50:29.053Z,11.80
2019-02-14T10:52:59.075Z,11.20
2019-02-14T10:55:27.649Z,11.73
2019-02-14T10:57:56.215Z,10.20
2019-02-14T11:00:25.103Z,9.10
2019-02-14T11:02:53.665Z,10.80
2019-02-14T11:05:22.200Z,12.50
2019-02-14T11:07:50.785Z,12.07
2019-02-14T11:10:19.338Z,10.97
2019-02-14T11:12:47.893Z,10.80
2019-02-14T11:15:17.242Z,11.03
2019-02-14T11:17:45.864Z,10.63
2019-02-14T11:20:14.436Z,11.40
2019-02-14T11:22:43.020Z,10.17
2019-02-14T11:25:12.762Z,9.40
2019-02-14T11:27:41.359Z,10.37
2019-02-14T11:30:10.582Z,8.53
2019-02-14T11:32:39.234Z,8.90
2019-02-14T11:35:08.519Z,8.63
2019-02-14T11:37:39.167Z,8.27
2019-02-14T11:40:08.547Z,9.30
2019-02-14T11:42:37.139Z,8.83
2019-02-14T11:45:06.720Z,9.50
2019-02-14T11:47:35.283Z,9.37
2019-02-14T11:50:04.070Z,10.10
2019-02-14T11:52:32.716Z,9.70
2019-02-14T11:55:01.372Z,10.77
2019-02-14T11:57:30.009Z,10.53
2019-02-14T11:59:58.672Z,10.33
2019-02-14T12:02:27.245Z,11.40
2019-02-14T12:04:55.823Z,11.03
2019-02-14T12:07:24.483Z,10.93
2019-02-14T12:09:53.109Z,11.57
2019-02-14T12:12:22.968Z,11.50
2019-02-14T12:14:51.995Z,12.00
2019-02-14T12:17:20.587Z,12.40
2019-02-14T12:19:49.155Z,11.43
2019-02-14T12:22:17.720Z,12.10
2019-02-14T12:24:46.442Z,11.67
2019-02-14T12:27:15.056Z,12.07
2019-02-14T12:29:43.623Z,11.33
2019-02-14T12:32:12.507Z,10.43
2019-02-14T12:34:41.084Z,8.70
2019-02-14T12:37:09.722Z,10.23
2019-02-14T12:39:38.333Z,9.20
2019-02-14T12:42:06.907Z,9.13
2019-02-14T12:44:35.492Z,9.23
2019-02-14T12:47:04.086Z,10.53
2019-02-14T12:49:32.651Z,9.50
2019-02-14T12:52:01.210Z,9.53
2019-02-14T12:54:29.907Z,9.43
2019-02-14T12:56:58.488Z,10.30
2019-02-14T12:59:27.132Z,9.73
2019-02-14T13:01:55.700Z,9.43
2019-02-14T13:04:24.276Z,8.77
2019-02-14T13:06:52.876Z,10.20
2019-02-14T13:09:21.579Z,9.63
2019-02-14T13:11:50.155Z,9.50
2019-02-14T13:14:18.711Z,10.30
2019-02-14T13:16:47.312Z,9.50
2019-02-14T13:19:15.871Z,10.17
2019-02-14T13:21:44.490Z,10.63
2019-02-14T13:24:13.057Z,10.77
2019-02-14T13:26:41.733Z,11.13
2019-02-14T13:29:10.295Z,11.83
2019-02-14T13:31:38.926Z,11.00
2019-02-14T13:34:07.518Z,10.77
2019-02-14T13:36:36.202Z,11.87
2019-02-14T13:39:06.555Z,12.80
2019-02-14T13:41:35.134Z,12.90
2019-02-14T13:44:03.731Z,12.20
2019-02-14T13:46:32.286Z,9.50
2019-02-14T13:49:00.878Z,12.47
2019-02-14T13:51:29.521Z,11.40
2019-02-14T13:53:58.239Z,10.37
2019-02-14T13:56:26.822Z,10.00
2019-02-14T13:58:55.463Z,10.37
2019-02-14T14:01:24.200Z,10.03
2019-02-14T14:03:52.781Z,11.27
2019-02-14T14:06:21.328Z,10.33
2019-02-14T14:08:49.909Z,11.00
2019-02-14T14:11:18.486Z,10.90
2019-02-14T14:13:47.053Z,11.13
2019-02-14T14:16:15.608Z,9.70
2019-02-14T14:18:44.235Z,10.40
2019-02-14T14:21:12.941Z,10.50
2019-02-14T14:23:41.676Z,11.17
2019-02-14T14:26:10.266Z,11.40
2019-02-14T14:28:39.179Z,10.57
2019-02-14T14:31:07.779Z,12.10
2019-02-14T14:33:36.432Z,11.43
2019-02-14T14:36:05.052Z,11.43
2019-02-14T14:38:33.603Z,12.40
2019-02-14T14:41:02.286Z,10.53
2019-02-14T14:43:35.973Z,12.10
2019-02-14T14:46:23.751Z,13.30
2019-02-14T14:48:52.406Z,12.57
2019-02-14T14:51:20.982Z,11.27
2019-02-14T14:53:49.563Z,10.97
2019-02-14T14:56:18.125Z,10.87
2019-02-14T14:58:46.695Z,11.07
2019-02-14T15:01:15.270Z,11.20
2019-02-14T15:03:43.860Z,10.60
2019-02-14T15:06:12.507Z,11.60
2019-02-14T15:08:41.186Z,9.87
2019-02-14T15:11:09.752Z,10.67
2019-02-14T15:13:38.329Z,10.07
2019-02-14T15:16:06.898Z,9.47
2019-02-14T15:18:35.469Z,10.70
2019-02-14T15:21:04.055Z,11.67
2019-02-14T15:23:32.646Z,11.17
2019-02-14T15:26:01.204Z,10.70
2019-02-14T15:28:29.830Z,10.83
2019-02-14T15:30:58.408Z,10.20
2019-02-14T15:33:26.942Z,9.90
2019-02-14T15:35:55.514Z,10.77
2019-02-14T15:38:24.182Z,10.60
2019-02-14T15:40:52.761Z,11.37
2019-02-14T15:43:21.310Z,11.20
2019-02-14T15:45:49.882Z,10.90
2019-02-14T15:48:18.470Z,11.80
2019-02-14T15:50:47.038Z,10.50
2019-02-14T15:53:17.431Z,11.43
2019-02-14T15:55:45.883Z,11.40
2019-02-14T15:58:16.298Z,10.57
2019-02-14T16:00:45.130Z,11.50
2019-02-14T16:03:15.409Z,10.67
2019-02-14T16:05:43.986Z,10.77
2019-02-14T16:08:12.530Z,11.87
2019-02-14T16:10:41.176Z,10.10
2019-02-14T16:13:09.946Z,10.57
2019-02-14T16:15:38.677Z,11.10
2019-02-14T16:18:07.256Z,11.43
2019-02-14T16:20:35.850Z,11.03
2019-02-14T16:23:06.473Z,12.13
2019-02-14T16:25:34.776Z,11.27
2019-02-14T16:28:03.410Z,10.93
2019-02-14T16:30:33.361Z,10.20
2019-02-14T16:33:02.134Z,10.97
2019-02-14T16:35:30.679Z,9.73
2019-02-14T16:37:59.326Z,11.30
2019-02-14T16:40:32.296Z,13.20
2019-02-14T16:42:58.198Z,11.10
2019-02-14T16:45:26.755Z,14.13
2019-02-14T16:47:55.351Z,11.67
2019-02-14T16:50:23.903Z,11.67
2019-02-14T16:52:52.486Z,11.53
2019-02-14T16:55:21.035Z,12.07
2019-02-14T16:57:49.619Z,12.83
2019-02-14T17:00:19.087Z,11.30
2019-02-14T17:02:47.839Z,11.90
2019-02-14T17:05:16.465Z,12.47
2019-02-14T17:07:45.055Z,11.07
2019-02-14T17:10:13.743Z,12.23
2019-02-14T17:12:42.295Z,12.10
2019-02-14T17:15:10.903Z,11.13
2019-02-14T17:17:39.488Z,12.57
2019-02-14T17:20:08.700Z,12.53
2019-02-14T17:22:37.275Z,12.80
2019-02-14T17:25:06.164Z,11.80
2019-02-14T17:27:34.711Z,13.43
2019-02-14T17:30:03.297Z,12.87
2019-02-14T17:32:31.834Z,13.30
2019-02-14T17:35:00.404Z,13.43
2019-02-14T17:37:28.959Z,13.40
2019-02-14T17:39:57.541Z,13.67
2019-02-14T17:42:26.103Z,13.00
2019-02-14T17:44:54.666Z,11.70
2019-02-14T17:47:23.238Z,12.70
2019-02-14T17:49:51.795Z,13.47
2019-02-14T17:52:20.355Z,11.97
2019-02-14T17:54:49.058Z,12.33
2019-02-14T17:57:17.626Z,11.90
2019-02-14T17:59:46.184Z,11.93
2019-02-14T18:02:16.307Z,12.00
2019-02-14T18:04:44.870Z,13.57
2019-02-14T18:07:13.415Z,12.03
2019-02-14T18:09:41.988Z,13.87
2019-02-14T18:12:10.539Z,13.50
2019-02-14T18:14:39.151Z,17.07
2019-02-14T18:17:08.050Z,14.07
2019-02-14T18:19:36.602Z,13.80
2019-02-14T18:22:05.171Z,14.93
2019-02-14T18:24:33.730Z,15.00
2019-02-14T18:27:02.289Z,13.70
2019-02-14T18:29:30.887Z,13.87
2019-02-14T18:31:59.510Z,12.73
2019-02-14T18:34:28.092Z,12.63
2019-02-14T18:36:56.686Z,12.47
2019-02-14T18:39:25.236Z,13.93
2019-02-14T18:41:53.954Z,11.37
2019-02-14T18:44:22.487Z,12.10
2019-02-14T18:46:51.045Z,11.90
2019-02-14T18:49:19.627Z,11.37
2019-02-14T18:51:48.500Z,12.20
2019-02-14T18:54:17.110Z,11.47
2019-02-14T18:56:45.670Z,13.43
2019-02-14T18:59:14.246Z,12.73
2019-02-14T19:01:42.806Z,12.53
2019-02-14T19:04:11.354Z,12.70
2019-02-14T19:06:39.929Z,12.47
2019-02-14T19:09:09.416Z,13.40
2019-02-14T19:11:38.317Z,12.63
2019-02-14T19:14:07.032Z,12.40
2019-02-14T19:16:35.676Z,12.57
2019-02-14T19:19:04.247Z,10.80
2019-02-14T19:21:32.874Z,12.23
2019-02-14T19:24:01.575Z,13.37
2019-02-14T19:26:30.353Z,11.80
2019-02-14T19:28:58.947Z,12.10
2019-02-14T19:31:27.515Z,11.33
2019-02-14T19:33:56.382Z,11.00
2019-02-14T19:36:24.948Z,11.53
2019-02-14T19:38:53.594Z,11.80
2019-02-14T19:41:25.424Z,13.00
2019-02-14T19:43:52.816Z,11.20
2019-02-14T19:46:21.395Z,12.50
2019-02-14T19:48:50.082Z,11.57
2019-02-14T19:51:18.889Z,11.53
2019-02-14T19:53:47.464Z,11.63
2019-02-14T19:56:16.081Z,11.60
2019-02-14T19:58:44.674Z,11.73
2019-02-14T20:01:13.233Z,12.40
2019-02-14T20:03:41.811Z,12.47
2019-02-14T20:06:10.438Z,13.47
2019-02-14T20:08:39.085Z,12.27
2019-02-14T20:11:07.696Z,12.07
2019-02-14T20:13:36.391Z,13.00
2019-02-14T20:16:05.242Z,12.63
2019-02-14T20:18:33.906Z,11.47
2019-02-14T20:21:02.525Z,11.73
2019-02-14T20:23:31.095Z,12.03
2019-02-14T20:25:59.786Z,12.13
2019-02-14T20:28:29.486Z,12.67
2019-02-14T20:30:58.196Z,11.93
2019-02-14T20:33:26.892Z,12.40
2019-02-14T20:35:55.483Z,13.07
2019-02-14T20:38:24.135Z,13.10
2019-02-14T20:40:52.715Z,11.80
2019-02-14T20:43:21.371Z,12.07
2019-02-14T20:45:49.967Z,11.87
2019-02-14T20:48:18.511Z,12.13
2019-02-14T20:50:47.083Z,12.57
2019-02-14T20:53:15.763Z,12.03
2019-02-14T20:55:44.302Z,12.27
2019-02-14T20:58:12.870Z,12.10
2019-02-14T21:00:42.403Z,11.17
2019-02-14T21:03:10.993Z,11.47
2019-02-14T21:05:39.554Z,12.03
2019-02-14T21:08:08.132Z,10.90
2019-02-14T21:10:36.769Z,12.03
2019-02-14T21:13:05.358Z,10.03
2019-02-14T21:15:33.970Z,11.97
2019-02-14T21:18:02.515Z,10.10
2019-02-14T21:20:31.166Z,9.80
2019-02-14T21:22:59.821Z,9.07
2019-02-14T21:25:28.419Z,9.23
2019-02-14T21:27:56.982Z,9.83
2019-02-14T21:30:25.581Z,9.97
2019-02-14T21:32:54.199Z,9.00
2019-02-14T21:35:22.826Z,8.77
2019-02-14T21:37:51.445Z,8.67
2019-02-14T21:40:20.066Z,8.77
2019-02-14T21:42:49.062Z,8.70
2019-02-14T21:45:17.675Z,7.80
2019-02-14T21:47:46.563Z,9.53
2019-02-14T21:50:15.298Z,8.87
2019-02-14T21:52:43.939Z,8.07
2019-02-14T21:55:12.548Z,7.87
2019-02-14T21:57:41.110Z,8.50
2019-02-14T22:00:11.104Z,7.60
2019-02-14T22:02:39.797Z,8.60
2019-02-14T22:05:08.797Z,8.60
2019-02-14T22:07:37.390Z,7.77
2019-02-14T22:10:06.211Z,7.43
2019-02-14T22:12:40.864Z,7.97
2019-02-14T22:15:05.557Z,7.07
2019-02-14T22:17:34.180Z,7.20
2019-02-14T22:20:02.799Z,6.63
2019-02-14T22:22:32.082Z,7.67
2019-02-14T22:25:01.100Z,7.10
2019-02-14T22:27:29.727Z,8.03
2019-02-14T22:29:58.291Z,8.00
2019-02-14T22:32:26.838Z,7.43
2019-02-14T22:34:55.710Z,7.43
2019-02-14T22:37:24.281Z,6.73
2019-02-14T22:39:52.867Z,6.80
2019-02-14T22:42:21.444Z,6.57
2019-02-14T22:44:50.081Z,6.93
2019-02-14T22:47:18.622Z,5.57
2019-02-14T22:49:47.199Z,5.97
2019-02-14T22:52:15.869Z,6.20
2019-02-14T22:54:44.510Z,6.60
2019-02-14T22:57:13.071Z,6.13
2019-02-14T22:59:41.623Z,6.57
2019-02-14T23:02:10.170Z,6.63
2019-02-14T23:04:39.015Z,6.27
2019-02-14T23:07:07.748Z,6.97
2019-02-14T23:09:36.314Z,5.90
2019-02-14T23:12:04.991Z,5.87
2019-02-14T23:14:33.635Z,5.83
2019-02-14T23:17:02.207Z,6.23
2019-02-14T23:19:30.775Z,6.57
2019-02-14T23:21:59.800Z,6.57
2019-02-14T23:24:28.374Z,7.60
2019-02-14T23:26:56.944Z,6.83
2019-02-14T23:29:25.668Z,6.87
2019-02-14T23:31:54.246Z,5.80
2019-02-14T23:34:22.912Z,6.93
2019-02-14T23:36:51.855Z,6.50
2019-02-14T23:39:21.039Z,6.17
2019-02-14T23:41:49.680Z,6.47
2019-02-14T23:44:18.259Z,6.10
2019-02-14T23:46:46.807Z,6.27
2019-02-14T23:49:15.355Z,6.47
2019-02-14T23:51:43.936Z,6.57
2019-02-14T23:54:12.583Z,6.47
2019-02-14T23:56:41.230Z,6.57
2019-02-14T23:59:09.794Z,7.00
